sensor_id;sensor_type;location;lat;lon;timestamp;temperature;humidity
21163;DHT22;10739;52.198;20.908;2023-04-24T00:00:41;12.10;99.90
21163;DHT22;10739;52.198;20.908;2023-04-24T00:03:07;12.00;99.90
21163;DHT22;10739;52.198;20.908;2023-04-24T00:05:33;12.00;99.90
21163;DHT22;10739;52.198;20.908;2023-04-24T00:08:00;11.90;99.90
21163;DHT22;10739;52.198;20.908;2023-04-24T00:10:26;11.90;99.90
21163;DHT22;10739;52.198;20.908;2023-04-24T00:12:53;11.80;99.90
21163;DHT22;10739;52.198;20.908;2023-04-24T00:15:19;11.80;99.90
21163;DHT22;10739;52.198;20.908;2023-04-24T00:17:45;11.80;99.90
21163;DHT22;10739;52.198;20.908;2023-04-24T00:20:12;11.80;99.90
21163;DHT22;10739;52.198;20.908;2023-04-24T00:22:39;11.70;99.90
21163;DHT22;10739;52.198;20.908;2023-04-24T00:25:05;11.60;99.90
21163;DHT22;10739;52.198;20.908;2023-04-24T00:27:32;11.60;99.90
21163;DHT22;10739;52.198;20.908;2023-04-24T00:29:58;11.60;99.90
21163;DHT22;10739;52.198;20.908;2023-04-24T00:32:24;11.70;99.90
21163;DHT22;10739;52.198;20.908;2023-04-24T00:34:51;11.70;99.90
21163;DHT22;10739;52.198;20.908;2023-04-24T00:37:17;11.70;99.90
21163;DHT22;10739;52.198;20.908;2023-04-24T00:39:43;11.60;99.90
21163;DHT22;10739;52.198;20.908;2023-04-24T00:42:09;11.70;99.90
21163;DHT22;10739;52.198;20.908;2023-04-24T00:44:36;11.80;99.90
21163;DHT22;10739;52.198;20.908;2023-04-24T00:47:03;11.80;99.90
21163;DHT22;10739;52.198;20.908;2023-04-24T00:49:30;11.80;99.90
21163;DHT22;10739;52.198;20.908;2023-04-24T00:51:56;11.90;99.90
21163;DHT22;10739;52.198;20.908;2023-04-24T00:54:22;11.90;99.90
21163;DHT22;10739;52.198;20.908;2023-04-24T00:56:49;11.90;99.90
21163;DHT22;10739;52.198;20.908;2023-04-24T00:59:17;11.90;99.90
21163;DHT22;10739;52.198;20.908;2023-04-24T01:01:45;11.90;99.90
21163;DHT22;10739;52.198;20.908;2023-04-24T01:04:11;12.00;99.90
21163;DHT22;10739;52.198;20.908;2023-04-24T01:06:39;12.00;99.90
21163;DHT22;10739;52.198;20.908;2023-04-24T01:09:06;12.10;99.90
21163;DHT22;10739;52.198;20.908;2023-04-24T01:11:36;12.00;99.90
21163;DHT22;10739;52.198;20.908;2023-04-24T01:14:03;12.00;99.90
21163;DHT22;10739;52.198;20.908;2023-04-24T01:16:30;11.90;99.90
21163;DHT22;10739;52.198;20.908;2023-04-24T01:18:56;11.80;99.90
21163;DHT22;10739;52.198;20.908;2023-04-24T01:21:23;11.70;99.90
21163;DHT22;10739;52.198;20.908;2023-04-24T01:23:55;11.70;99.90
21163;DHT22;10739;52.198;20.908;2023-04-24T01:26:22;11.60;99.90
21163;DHT22;10739;52.198;20.908;2023-04-24T01:28:51;11.60;99.90
21163;DHT22;10739;52.198;20.908;2023-04-24T01:31:18;11.60;99.90
21163;DHT22;10739;52.198;20.908;2023-04-24T01:33:45;11.50;99.90
21163;DHT22;10739;52.198;20.908;2023-04-24T01:36:11;11.50;99.90
21163;DHT22;10739;52.198;20.908;2023-04-24T01:38:37;11.50;99.90
21163;DHT22;10739;52.198;20.908;2023-04-24T01:41:04;11.40;99.90
21163;DHT22;10739;52.198;20.908;2023-04-24T01:43:30;11.40;99.90
21163;DHT22;10739;52.198;20.908;2023-04-24T01:45:57;11.30;99.90
21163;DHT22;10739;52.198;20.908;2023-04-24T01:48:24;11.30;99.90
21163;DHT22;10739;52.198;20.908;2023-04-24T01:50:50;11.20;99.90
21163;DHT22;10739;52.198;20.908;2023-04-24T01:53:16;11.20;99.90
21163;DHT22;10739;52.198;20.908;2023-04-24T01:55:42;11.10;99.90
21163;DHT22;10739;52.198;20.908;2023-04-24T01:58:09;11.10;99.90
21163;DHT22;10739;52.198;20.908;2023-04-24T02:00:35;11.00;99.90
21163;DHT22;10739;52.198;20.908;2023-04-24T02:03:01;11.00;99.90
21163;DHT22;10739;52.198;20.908;2023-04-24T02:05:28;11.00;99.90
21163;DHT22;10739;52.198;20.908;2023-04-24T02:07:54;11.10;99.90
21163;DHT22;10739;52.198;20.908;2023-04-24T02:10:20;11.10;99.90
21163;DHT22;10739;52.198;20.908;2023-04-24T02:12:47;11.10;99.90
21163;DHT22;10739;52.198;20.908;2023-04-24T02:15:13;11.20;99.90
21163;DHT22;10739;52.198;20.908;2023-04-24T02:17:39;11.10;99.90
21163;DHT22;10739;52.198;20.908;2023-04-24T02:20:06;11.10;99.90
21163;DHT22;10739;52.198;20.908;2023-04-24T02:22:33;11.10;99.90
21163;DHT22;10739;52.198;20.908;2023-04-24T02:24:59;11.00;99.90
21163;DHT22;10739;52.198;20.908;2023-04-24T02:27:26;11.00;99.90
21163;DHT22;10739;52.198;20.908;2023-04-24T02:29:52;11.00;99.90
21163;DHT22;10739;52.198;20.908;2023-04-24T02:32:19;11.00;99.90
21163;DHT22;10739;52.198;20.908;2023-04-24T02:34:45;11.00;99.90
21163;DHT22;10739;52.198;20.908;2023-04-24T02:37:11;10.90;99.90
21163;DHT22;10739;52.198;20.908;2023-04-24T02:39:38;10.80;99.90
21163;DHT22;10739;52.198;20.908;2023-04-24T02:42:04;10.70;99.90
21163;DHT22;10739;52.198;20.908;2023-04-24T02:44:31;10.60;99.90
21163;DHT22;10739;52.198;20.908;2023-04-24T02:46:57;10.60;99.90
21163;DHT22;10739;52.198;20.908;2023-04-24T02:49:23;10.60;99.90
21163;DHT22;10739;52.198;20.908;2023-04-24T02:51:50;10.60;99.90
21163;DHT22;10739;52.198;20.908;2023-04-24T02:54:16;10.60;99.90
21163;DHT22;10739;52.198;20.908;2023-04-24T02:56:42;10.50;99.90
21163;DHT22;10739;52.198;20.908;2023-04-24T02:59:08;10.60;99.90
21163;DHT22;10739;52.198;20.908;2023-04-24T03:01:36;10.50;99.90
21163;DHT22;10739;52.198;20.908;2023-04-24T03:04:02;10.50;99.90
21163;DHT22;10739;52.198;20.908;2023-04-24T03:06:29;10.50;99.90
21163;DHT22;10739;52.198;20.908;2023-04-24T03:08:57;10.50;99.90
21163;DHT22;10739;52.198;20.908;2023-04-24T03:11:23;10.50;99.90
21163;DHT22;10739;52.198;20.908;2023-04-24T03:13:49;10.50;99.90
21163;DHT22;10739;52.198;20.908;2023-04-24T03:16:16;10.50;99.90
21163;DHT22;10739;52.198;20.908;2023-04-24T03:18:42;10.60;99.90
21163;DHT22;10739;52.198;20.908;2023-04-24T03:21:08;10.60;99.90
21163;DHT22;10739;52.198;20.908;2023-04-24T03:23:35;10.60;99.90
21163;DHT22;10739;52.198;20.908;2023-04-24T03:26:01;10.70;99.90
21163;DHT22;10739;52.198;20.908;2023-04-24T03:28:28;10.70;99.90
21163;DHT22;10739;52.198;20.908;2023-04-24T03:30:54;10.70;99.90
21163;DHT22;10739;52.198;20.908;2023-04-24T03:33:20;10.80;99.90
21163;DHT22;10739;52.198;20.908;2023-04-24T03:35:46;10.90;99.90
21163;DHT22;10739;52.198;20.908;2023-04-24T03:38:13;10.90;99.90
21163;DHT22;10739;52.198;20.908;2023-04-24T03:40:39;10.90;99.90
21163;DHT22;10739;52.198;20.908;2023-04-24T03:43:05;11.00;99.90
21163;DHT22;10739;52.198;20.908;2023-04-24T03:45:32;11.00;99.90
21163;DHT22;10739;52.198;20.908;2023-04-24T03:47:58;11.00;99.90
21163;DHT22;10739;52.198;20.908;2023-04-24T03:50:24;11.00;99.90
21163;DHT22;10739;52.198;20.908;2023-04-24T03:52:52;11.10;99.90
21163;DHT22;10739;52.198;20.908;2023-04-24T03:55:18;11.10;99.90
21163;DHT22;10739;52.198;20.908;2023-04-24T03:57:45;11.00;99.90
21163;DHT22;10739;52.198;20.908;2023-04-24T04:00:12;11.00;99.90
21163;DHT22;10739;52.198;20.908;2023-04-24T04:02:38;11.00;99.90
21163;DHT22;10739;52.198;20.908;2023-04-24T04:05:05;11.00;99.90
21163;DHT22;10739;52.198;20.908;2023-04-24T04:07:32;11.00;99.90
21163;DHT22;10739;52.198;20.908;2023-04-24T04:09:58;11.00;99.90
21163;DHT22;10739;52.198;20.908;2023-04-24T04:12:24;11.10;99.90
21163;DHT22;10739;52.198;20.908;2023-04-24T04:14:50;11.10;99.90
21163;DHT22;10739;52.198;20.908;2023-04-24T04:17:16;11.20;99.90
21163;DHT22;10739;52.198;20.908;2023-04-24T04:19:43;11.20;99.90
21163;DHT22;10739;52.198;20.908;2023-04-24T04:22:10;11.20;99.90
21163;DHT22;10739;52.198;20.908;2023-04-24T04:24:36;11.10;99.90
21163;DHT22;10739;52.198;20.908;2023-04-24T04:27:06;11.10;99.90
21163;DHT22;10739;52.198;20.908;2023-04-24T04:29:34;11.20;99.90
21163;DHT22;10739;52.198;20.908;2023-04-24T04:32:01;11.10;99.90
21163;DHT22;10739;52.198;20.908;2023-04-24T04:34:28;11.20;99.90
21163;DHT22;10739;52.198;20.908;2023-04-24T04:36:55;11.40;99.90
21163;DHT22;10739;52.198;20.908;2023-04-24T04:39:21;11.50;99.90
21163;DHT22;10739;52.198;20.908;2023-04-24T04:41:48;11.60;99.90
21163;DHT22;10739;52.198;20.908;2023-04-24T04:44:14;11.70;99.90
21163;DHT22;10739;52.198;20.908;2023-04-24T04:46:41;11.80;99.90
21163;DHT22;10739;52.198;20.908;2023-04-24T04:49:07;11.90;99.90
21163;DHT22;10739;52.198;20.908;2023-04-24T04:51:34;12.00;99.90
21163;DHT22;10739;52.198;20.908;2023-04-24T04:54:00;12.10;99.90
21163;DHT22;10739;52.198;20.908;2023-04-24T04:56:27;12.20;99.90
21163;DHT22;10739;52.198;20.908;2023-04-24T04:58:54;12.30;99.90
21163;DHT22;10739;52.198;20.908;2023-04-24T05:01:20;12.30;99.90
21163;DHT22;10739;52.198;20.908;2023-04-24T05:03:48;12.30;99.90
21163;DHT22;10739;52.198;20.908;2023-04-24T05:06:15;12.30;99.90
21163;DHT22;10739;52.198;20.908;2023-04-24T05:08:41;12.50;99.90
21163;DHT22;10739;52.198;20.908;2023-04-24T05:11:07;12.50;99.90
21163;DHT22;10739;52.198;20.908;2023-04-24T05:13:34;12.60;99.90
21163;DHT22;10739;52.198;20.908;2023-04-24T05:16:01;12.70;99.90
21163;DHT22;10739;52.198;20.908;2023-04-24T05:18:27;12.80;99.90
21163;DHT22;10739;52.198;20.908;2023-04-24T05:20:53;13.00;99.90
21163;DHT22;10739;52.198;20.908;2023-04-24T05:23:19;13.10;99.90
21163;DHT22;10739;52.198;20.908;2023-04-24T05:25:46;13.20;99.90
21163;DHT22;10739;52.198;20.908;2023-04-24T05:28:12;13.30;99.90
21163;DHT22;10739;52.198;20.908;2023-04-24T05:30:38;13.40;99.90
21163;DHT22;10739;52.198;20.908;2023-04-24T05:33:05;13.50;99.90
21163;DHT22;10739;52.198;20.908;2023-04-24T05:35:31;13.60;99.90
21163;DHT22;10739;52.198;20.908;2023-04-24T05:37:57;13.80;99.90
21163;DHT22;10739;52.198;20.908;2023-04-24T05:40:24;13.90;99.90
21163;DHT22;10739;52.198;20.908;2023-04-24T05:42:50;13.90;99.90
21163;DHT22;10739;52.198;20.908;2023-04-24T05:45:17;13.90;99.90
21163;DHT22;10739;52.198;20.908;2023-04-24T05:47:43;13.90;99.90
21163;DHT22;10739;52.198;20.908;2023-04-24T05:50:11;13.90;99.90
21163;DHT22;10739;52.198;20.908;2023-04-24T05:52:37;14.00;99.90
21163;DHT22;10739;52.198;20.908;2023-04-24T05:55:04;13.90;99.90
21163;DHT22;10739;52.198;20.908;2023-04-24T05:57:31;13.90;99.90
21163;DHT22;10739;52.198;20.908;2023-04-24T05:59:57;13.90;99.90
21163;DHT22;10739;52.198;20.908;2023-04-24T06:02:23;13.90;99.90
21163;DHT22;10739;52.198;20.908;2023-04-24T06:04:50;13.90;99.90
21163;DHT22;10739;52.198;20.908;2023-04-24T06:07:16;14.00;99.90
21163;DHT22;10739;52.198;20.908;2023-04-24T06:09:43;14.10;99.90
21163;DHT22;10739;52.198;20.908;2023-04-24T06:12:09;14.30;99.90
21163;DHT22;10739;52.198;20.908;2023-04-24T06:14:35;14.50;99.90
21163;DHT22;10739;52.198;20.908;2023-04-24T06:17:01;14.60;99.90
21163;DHT22;10739;52.198;20.908;2023-04-24T06:19:27;14.80;99.90
21163;DHT22;10739;52.198;20.908;2023-04-24T06:21:54;15.00;99.80
21163;DHT22;10739;52.198;20.908;2023-04-24T06:24:20;15.20;99.80
21163;DHT22;10739;52.198;20.908;2023-04-24T06:26:46;15.40;99.80
21163;DHT22;10739;52.198;20.908;2023-04-24T06:29:13;15.60;99.10
21163;DHT22;10739;52.198;20.908;2023-04-24T06:31:39;15.70;98.30
21163;DHT22;10739;52.198;20.908;2023-04-24T06:34:05;15.90;98.00
21163;DHT22;10739;52.198;20.908;2023-04-24T06:36:32;16.10;98.20
21163;DHT22;10739;52.198;20.908;2023-04-24T06:39:00;16.20;98.30
21163;DHT22;10739;52.198;20.908;2023-04-24T06:41:26;16.40;97.90
21163;DHT22;10739;52.198;20.908;2023-04-24T06:43:54;16.50;97.60
21163;DHT22;10739;52.198;20.908;2023-04-24T06:46:20;16.50;96.60
21163;DHT22;10739;52.198;20.908;2023-04-24T06:48:49;16.60;96.00
21163;DHT22;10739;52.198;20.908;2023-04-24T06:51:16;16.60;95.80
21163;DHT22;10739;52.198;20.908;2023-04-24T06:53:44;16.80;96.10
21163;DHT22;10739;52.198;20.908;2023-04-24T06:56:10;16.90;95.00
21163;DHT22;10739;52.198;20.908;2023-04-24T06:58:36;17.10;94.30
21163;DHT22;10739;52.198;20.908;2023-04-24T07:01:02;17.20;94.30
21163;DHT22;10739;52.198;20.908;2023-04-24T07:03:28;17.30;92.90
21163;DHT22;10739;52.198;20.908;2023-04-24T07:05:55;17.40;92.90
21163;DHT22;10739;52.198;20.908;2023-04-24T07:08:21;17.50;92.10
21163;DHT22;10739;52.198;20.908;2023-04-24T07:10:48;17.80;91.70
21163;DHT22;10739;52.198;20.908;2023-04-24T07:13:15;18.00;92.00
21163;DHT22;10739;52.198;20.908;2023-04-24T07:15:41;18.10;91.20
21163;DHT22;10739;52.198;20.908;2023-04-24T07:18:07;17.80;91.10
21163;DHT22;10739;52.198;20.908;2023-04-24T07:20:34;17.70;91.20
21163;DHT22;10739;52.198;20.908;2023-04-24T07:23:02;17.70;91.60
21163;DHT22;10739;52.198;20.908;2023-04-24T07:25:28;17.70;91.40
21163;DHT22;10739;52.198;20.908;2023-04-24T07:27:54;17.80;92.20
21163;DHT22;10739;52.198;20.908;2023-04-24T07:30:20;18.00;92.90
21163;DHT22;10739;52.198;20.908;2023-04-24T07:32:47;18.00;92.10
21163;DHT22;10739;52.198;20.908;2023-04-24T07:35:13;18.10;92.90
21163;DHT22;10739;52.198;20.908;2023-04-24T07:37:39;18.20;91.50
21163;DHT22;10739;52.198;20.908;2023-04-24T07:40:06;18.40;91.30
21163;DHT22;10739;52.198;20.908;2023-04-24T07:42:33;18.40;91.20
21163;DHT22;10739;52.198;20.908;2023-04-24T07:45:00;18.50;91.80
21163;DHT22;10739;52.198;20.908;2023-04-24T07:47:26;18.70;92.10
21163;DHT22;10739;52.198;20.908;2023-04-24T07:49:53;18.90;90.70
21163;DHT22;10739;52.198;20.908;2023-04-24T07:52:20;18.90;87.40
21163;DHT22;10739;52.198;20.908;2023-04-24T07:54:46;18.80;87.00
21163;DHT22;10739;52.198;20.908;2023-04-24T07:57:12;18.90;88.10
21163;DHT22;10739;52.198;20.908;2023-04-24T07:59:39;18.50;88.40
21163;DHT22;10739;52.198;20.908;2023-04-24T08:02:06;18.10;89.70
21163;DHT22;10739;52.198;20.908;2023-04-24T08:04:32;18.30;89.30
21163;DHT22;10739;52.198;20.908;2023-04-24T08:06:59;18.30;89.00
21163;DHT22;10739;52.198;20.908;2023-04-24T08:09:25;18.40;91.00
21163;DHT22;10739;52.198;20.908;2023-04-24T08:11:51;18.70;90.80
21163;DHT22;10739;52.198;20.908;2023-04-24T08:14:19;19.10;88.30
21163;DHT22;10739;52.198;20.908;2023-04-24T08:16:45;19.00;88.20
21163;DHT22;10739;52.198;20.908;2023-04-24T08:19:12;18.90;87.80
21163;DHT22;10739;52.198;20.908;2023-04-24T08:21:39;18.80;89.30
21163;DHT22;10739;52.198;20.908;2023-04-24T08:24:05;18.80;89.30
21163;DHT22;10739;52.198;20.908;2023-04-24T08:26:33;18.70;90.10
21163;DHT22;10739;52.198;20.908;2023-04-24T08:29:00;18.70;91.20
21163;DHT22;10739;52.198;20.908;2023-04-24T08:31:26;18.50;90.60
21163;DHT22;10739;52.198;20.908;2023-04-24T08:33:52;18.70;90.60
21163;DHT22;10739;52.198;20.908;2023-04-24T08:36:18;18.80;91.20
21163;DHT22;10739;52.198;20.908;2023-04-24T08:38:45;19.20;89.30
21163;DHT22;10739;52.198;20.908;2023-04-24T08:41:14;19.60;85.00
21163;DHT22;10739;52.198;20.908;2023-04-24T08:43:42;19.70;82.90
21163;DHT22;10739;52.198;20.908;2023-04-24T08:46:09;19.70;81.80
21163;DHT22;10739;52.198;20.908;2023-04-24T08:48:38;19.70;83.20
21163;DHT22;10739;52.198;20.908;2023-04-24T08:51:09;19.60;82.90
21163;DHT22;10739;52.198;20.908;2023-04-24T08:53:35;19.50;85.00
21163;DHT22;10739;52.198;20.908;2023-04-24T08:56:02;19.80;83.00
21163;DHT22;10739;52.198;20.908;2023-04-24T08:58:31;19.70;82.70
21163;DHT22;10739;52.198;20.908;2023-04-24T09:01:05;19.80;83.90
21163;DHT22;10739;52.198;20.908;2023-04-24T09:03:33;19.80;83.90
21163;DHT22;10739;52.198;20.908;2023-04-24T09:06:01;20.00;85.10
21163;DHT22;10739;52.198;20.908;2023-04-24T09:08:29;20.20;83.20
21163;DHT22;10739;52.198;20.908;2023-04-24T09:10:56;20.50;81.90
21163;DHT22;10739;52.198;20.908;2023-04-24T09:13:24;20.70;83.10
21163;DHT22;10739;52.198;20.908;2023-04-24T09:15:51;21.00;81.00
21163;DHT22;10739;52.198;20.908;2023-04-24T09:18:18;20.90;80.30
21163;DHT22;10739;52.198;20.908;2023-04-24T09:20:58;20.80;77.60
21163;DHT22;10739;52.198;20.908;2023-04-24T09:23:30;20.90;76.10
21163;DHT22;10739;52.198;20.908;2023-04-24T09:25:58;21.10;79.20
21163;DHT22;10739;52.198;20.908;2023-04-24T09:28:34;21.80;77.20
21163;DHT22;10739;52.198;20.908;2023-04-24T09:31:09;21.70;76.30
21163;DHT22;10739;52.198;20.908;2023-04-24T09:33:40;21.90;74.70
21163;DHT22;10739;52.198;20.908;2023-04-24T09:36:44;22.80;71.30
21163;DHT22;10739;52.198;20.908;2023-04-24T09:39:12;23.60;67.90
21163;DHT22;10739;52.198;20.908;2023-04-24T09:41:48;24.50;65.90
21163;DHT22;10739;52.198;20.908;2023-04-24T09:44:18;25.20;60.90
21163;DHT22;10739;52.198;20.908;2023-04-24T09:46:56;25.60;59.30
21163;DHT22;10739;52.198;20.908;2023-04-24T09:49:31;26.10;59.40
21163;DHT22;10739;52.198;20.908;2023-04-24T09:52:06;25.70;55.60
21163;DHT22;10739;52.198;20.908;2023-04-24T09:54:34;26.70;57.00
21163;DHT22;10739;52.198;20.908;2023-04-24T09:57:03;27.90;53.40
21163;DHT22;10739;52.198;20.908;2023-04-24T09:59:29;28.70;52.00
21163;DHT22;10739;52.198;20.908;2023-04-24T10:01:56;28.30;52.40
21163;DHT22;10739;52.198;20.908;2023-04-24T10:04:26;28.50;51.80
21163;DHT22;10739;52.198;20.908;2023-04-24T10:06:57;29.30;49.80
21163;DHT22;10739;52.198;20.908;2023-04-24T10:09:31;29.40;48.90
21163;DHT22;10739;52.198;20.908;2023-04-24T10:11:59;28.30;48.50
21163;DHT22;10739;52.198;20.908;2023-04-24T10:14:28;27.20;50.00
21163;DHT22;10739;52.198;20.908;2023-04-24T10:17:01;28.20;49.50
21163;DHT22;10739;52.198;20.908;2023-04-24T10:19:29;27.50;45.30
21163;DHT22;10739;52.198;20.908;2023-04-24T10:21:57;27.60;46.40
21163;DHT22;10739;52.198;20.908;2023-04-24T10:24:24;28.20;48.90
21163;DHT22;10739;52.198;20.908;2023-04-24T10:26:50;29.20;47.50
21163;DHT22;10739;52.198;20.908;2023-04-24T10:29:19;29.70;46.90
21163;DHT22;10739;52.198;20.908;2023-04-24T10:31:45;30.30;44.10
21163;DHT22;10739;52.198;20.908;2023-04-24T10:34:13;28.10;45.60
21163;DHT22;10739;52.198;20.908;2023-04-24T10:36:51;27.70;46.40
21163;DHT22;10739;52.198;20.908;2023-04-24T10:39:19;27.20;46.70
21163;DHT22;10739;52.198;20.908;2023-04-24T10:41:49;26.20;49.30
21163;DHT22;10739;52.198;20.908;2023-04-24T10:44:16;25.70;48.70
21163;DHT22;10739;52.198;20.908;2023-04-24T10:46:46;25.60;49.90
21163;DHT22;10739;52.198;20.908;2023-04-24T10:49:28;25.70;49.60
21163;DHT22;10739;52.198;20.908;2023-04-24T10:52:01;26.00;50.50
21163;DHT22;10739;52.198;20.908;2023-04-24T10:54:29;26.80;50.20
21163;DHT22;10739;52.198;20.908;2023-04-24T10:59:45;27.30;47.90
21163;DHT22;10739;52.198;20.908;2023-04-24T11:02:14;28.20;47.30
21163;DHT22;10739;52.198;20.908;2023-04-24T11:04:41;28.10;45.10
21163;DHT22;10739;52.198;20.908;2023-04-24T11:07:11;28.40;44.00
21163;DHT22;10739;52.198;20.908;2023-04-24T11:09:38;28.30;44.80
21163;DHT22;10739;52.198;20.908;2023-04-24T11:12:10;28.60;45.00
21163;DHT22;10739;52.198;20.908;2023-04-24T11:15:00;29.30;44.40
21163;DHT22;10739;52.198;20.908;2023-04-24T11:17:32;29.80;44.20
21163;DHT22;10739;52.198;20.908;2023-04-24T11:20:07;30.20;42.80
21163;DHT22;10739;52.198;20.908;2023-04-24T11:22:38;28.90;42.00
21163;DHT22;10739;52.198;20.908;2023-04-24T11:25:11;27.20;44.60
21163;DHT22;10739;52.198;20.908;2023-04-24T11:27:44;27.70;46.70
21163;DHT22;10739;52.198;20.908;2023-04-24T11:30:18;28.70;45.50
21163;DHT22;10739;52.198;20.908;2023-04-24T11:32:50;29.30;43.00
21163;DHT22;10739;52.198;20.908;2023-04-24T11:35:18;28.90;43.30
21163;DHT22;10739;52.198;20.908;2023-04-24T11:37:54;27.30;43.80
21163;DHT22;10739;52.198;20.908;2023-04-24T11:40:22;27.40;44.80
21163;DHT22;10739;52.198;20.908;2023-04-24T11:42:53;27.20;44.20
21163;DHT22;10739;52.198;20.908;2023-04-24T11:45:23;27.40;45.80
21163;DHT22;10739;52.198;20.908;2023-04-24T11:47:51;28.20;45.30
21163;DHT22;10739;52.198;20.908;2023-04-24T11:50:19;28.80;43.10
21163;DHT22;10739;52.198;20.908;2023-04-24T11:52:48;28.20;43.60
21163;DHT22;10739;52.198;20.908;2023-04-24T11:57:46;28.90;43.60
21163;DHT22;10739;52.198;20.908;2023-04-24T12:00:27;29.40;42.60
21163;DHT22;10739;52.198;20.908;2023-04-24T12:03:09;29.60;41.60
21163;DHT22;10739;52.198;20.908;2023-04-24T12:05:38;28.80;41.20
21163;DHT22;10739;52.198;20.908;2023-04-24T12:08:04;27.30;42.40
21163;DHT22;10739;52.198;20.908;2023-04-24T12:10:32;27.70;44.20
21163;DHT22;10739;52.198;20.908;2023-04-24T12:12:59;27.90;42.40
21163;DHT22;10739;52.198;20.908;2023-04-24T12:15:26;28.80;42.40
21163;DHT22;10739;52.198;20.908;2023-04-24T12:17:54;29.40;43.10
21163;DHT22;10739;52.198;20.908;2023-04-24T12:20:32;28.50;43.40
21163;DHT22;10739;52.198;20.908;2023-04-24T12:23:00;27.00;44.70
21163;DHT22;10739;52.198;20.908;2023-04-24T12:25:31;26.10;46.10
21163;DHT22;10739;52.198;20.908;2023-04-24T12:30:32;24.30;47.90
21163;DHT22;10739;52.198;20.908;2023-04-24T12:33:21;23.90;48.30
21163;DHT22;10739;52.198;20.908;2023-04-24T12:35:51;23.60;48.70
21163;DHT22;10739;52.198;20.908;2023-04-24T12:38:22;23.50;49.70
21163;DHT22;10739;52.198;20.908;2023-04-24T12:41:35;23.40;49.80
21163;DHT22;10739;52.198;20.908;2023-04-24T12:43:56;22.80;50.40
21163;DHT22;10739;52.198;20.908;2023-04-24T12:46:23;21.80;53.40
21163;DHT22;10739;52.198;20.908;2023-04-24T12:48:49;20.80;53.80
21163;DHT22;10739;52.198;20.908;2023-04-24T12:51:15;20.10;55.00
21163;DHT22;10739;52.198;20.908;2023-04-24T12:53:42;19.80;56.50
21163;DHT22;10739;52.198;20.908;2023-04-24T12:56:08;19.50;57.20
21163;DHT22;10739;52.198;20.908;2023-04-24T12:58:35;19.30;58.80
21163;DHT22;10739;52.198;20.908;2023-04-24T13:01:01;19.10;59.10
21163;DHT22;10739;52.198;20.908;2023-04-24T13:03:27;19.10;59.00
21163;DHT22;10739;52.198;20.908;2023-04-24T13:05:54;19.10;58.60
21163;DHT22;10739;52.198;20.908;2023-04-24T13:08:20;19.10;59.20
21163;DHT22;10739;52.198;20.908;2023-04-24T13:10:50;19.10;58.70
21163;DHT22;10739;52.198;20.908;2023-04-24T13:13:19;19.10;58.50
21163;DHT22;10739;52.198;20.908;2023-04-24T13:15:47;19.10;59.00
21163;DHT22;10739;52.198;20.908;2023-04-24T13:18:16;19.40;59.30
21163;DHT22;10739;52.198;20.908;2023-04-24T13:20:43;19.90;58.00
21163;DHT22;10739;52.198;20.908;2023-04-24T13:23:11;20.40;55.60
21163;DHT22;10739;52.198;20.908;2023-04-24T13:25:38;20.90;54.40
21163;DHT22;10739;52.198;20.908;2023-04-24T13:28:06;21.50;54.00
21163;DHT22;10739;52.198;20.908;2023-04-24T13:30:32;21.50;51.70
21163;DHT22;10739;52.198;20.908;2023-04-24T13:32:58;21.60;52.80
21163;DHT22;10739;52.198;20.908;2023-04-24T13:35:25;22.00;52.20
21163;DHT22;10739;52.198;20.908;2023-04-24T13:37:51;22.00;51.30
21163;DHT22;10739;52.198;20.908;2023-04-24T13:40:17;22.20;50.60
21163;DHT22;10739;52.198;20.908;2023-04-24T13:42:50;22.30;50.00
21163;DHT22;10739;52.198;20.908;2023-04-24T13:45:21;22.50;50.00
21163;DHT22;10739;52.198;20.908;2023-04-24T13:47:49;23.00;48.10
21163;DHT22;10739;52.198;20.908;2023-04-24T13:50:15;23.10;48.10
21163;DHT22;10739;52.198;20.908;2023-04-24T13:52:41;23.10;48.60
21163;DHT22;10739;52.198;20.908;2023-04-24T13:55:08;23.40;46.90
21163;DHT22;10739;52.198;20.908;2023-04-24T13:57:34;23.80;48.20
21163;DHT22;10739;52.198;20.908;2023-04-24T14:00:01;24.20;47.10
21163;DHT22;10739;52.198;20.908;2023-04-24T14:02:29;24.10;47.30
21163;DHT22;10739;52.198;20.908;2023-04-24T14:04:56;24.00;46.10
21163;DHT22;10739;52.198;20.908;2023-04-24T14:07:24;23.70;45.80
21163;DHT22;10739;52.198;20.908;2023-04-24T14:09:51;23.20;47.30
21163;DHT22;10739;52.198;20.908;2023-04-24T14:12:17;22.50;48.30
21163;DHT22;10739;52.198;20.908;2023-04-24T14:14:46;22.30;49.10
21163;DHT22;10739;52.198;20.908;2023-04-24T14:17:14;22.00;50.30
21163;DHT22;10739;52.198;20.908;2023-04-24T14:19:40;21.70;51.00
21163;DHT22;10739;52.198;20.908;2023-04-24T14:22:07;21.60;51.10
21163;DHT22;10739;52.198;20.908;2023-04-24T14:24:33;21.60;51.50
21163;DHT22;10739;52.198;20.908;2023-04-24T14:26:59;21.50;51.70
21163;DHT22;10739;52.198;20.908;2023-04-24T14:29:26;21.40;52.30
21163;DHT22;10739;52.198;20.908;2023-04-24T14:31:52;21.50;49.90
21163;DHT22;10739;52.198;20.908;2023-04-24T14:34:18;21.50;50.20
21163;DHT22;10739;52.198;20.908;2023-04-24T14:36:45;21.50;51.00
21163;DHT22;10739;52.198;20.908;2023-04-24T14:39:11;22.00;50.20
21163;DHT22;10739;52.198;20.908;2023-04-24T14:41:38;22.70;48.60
21163;DHT22;10739;52.198;20.908;2023-04-24T14:44:05;23.50;47.80
21163;DHT22;10739;52.198;20.908;2023-04-24T14:46:31;24.30;46.90
21163;DHT22;10739;52.198;20.908;2023-04-24T14:48:58;24.50;46.00
21163;DHT22;10739;52.198;20.908;2023-04-24T14:51:24;25.10;45.50
21163;DHT22;10739;52.198;20.908;2023-04-24T14:53:51;24.90;46.00
21163;DHT22;10739;52.198;20.908;2023-04-24T14:56:17;25.60;45.20
21163;DHT22;10739;52.198;20.908;2023-04-24T14:58:43;25.60;43.00
21163;DHT22;10739;52.198;20.908;2023-04-24T15:01:12;25.70;43.60
21163;DHT22;10739;52.198;20.908;2023-04-24T15:03:38;25.20;42.50
21163;DHT22;10739;52.198;20.908;2023-04-24T15:06:04;24.60;43.50
21163;DHT22;10739;52.198;20.908;2023-04-24T15:08:31;24.10;42.40
21163;DHT22;10739;52.198;20.908;2023-04-24T15:10:57;23.10;43.20
21163;DHT22;10739;52.198;20.908;2023-04-24T15:13:23;22.60;44.60
21163;DHT22;10739;52.198;20.908;2023-04-24T15:15:50;22.40;44.90
21163;DHT22;10739;52.198;20.908;2023-04-24T15:18:16;22.30;45.60
21163;DHT22;10739;52.198;20.908;2023-04-24T15:20:42;22.30;45.90
21163;DHT22;10739;52.198;20.908;2023-04-24T15:23:09;22.20;45.50
21163;DHT22;10739;52.198;20.908;2023-04-24T15:25:36;22.10;45.90